Time;durP1;ratioP1;P1;durP2;ratioP2;P2;SDS_P1;SDS_P2;PMS_P1;PMS_P2;Temp;Humidity;BMP_temperature;BMP_pressure;BME280_temperature;BME280_humidity;BME280_pressure;Samples;Min_cycle;Max_cycle;Signal;HPM_P1;HPM_P2
2021/03/03 00:01:52;;;;;;;32.10;16.95;;;9.30;66.60;8.30;102796.00;;;;4972973;28;20059;-72
2021/03/03 00:04:18;;;;;;;32.75;17.17;;;9.30;66.70;8.30;102798.00;;;;4974977;28;20085;-72
2021/03/03 00:06:44;;;;;;;39.42;17.80;;;9.30;67.00;8.20;102789.00;;;;4988122;28;20097;-72
2021/03/03 00:09:10;;;;;;;34.20;17.60;;;9.20;66.60;8.20;102794.00;;;;4972989;28;20053;-72
2021/03/03 00:11:36;;;;;;;28.80;17.40;;;9.10;66.60;8.20;102802.00;;;;4976733;28;20054;-71
2021/03/03 00:14:02;;;;;;;34.72;17.42;;;9.20;67.20;8.10;102803.00;;;;4971634;28;20503;-72
2021/03/03 00:16:28;;;;;;;27.95;16.27;;;9.30;67.50;8.10;102797.00;;;;4973932;28;20077;-71
2021/03/03 00:18:54;;;;;;;36.90;17.88;;;9.10;67.30;8.10;102790.00;;;;4953840;28;20041;-72
2021/03/03 00:21:20;;;;;;;37.95;17.15;;;9.10;67.60;8.00;102786.00;;;;4972306;28;20057;-72
2021/03/03 00:23:46;;;;;;;36.72;18.02;;;9.10;67.50;8.00;102794.00;;;;4974521;28;20508;-72
2021/03/03 00:26:12;;;;;;;38.03;17.23;;;9.00;67.50;8.00;102800.00;;;;4972567;28;20076;-71
2021/03/03 00:28:38;;;;;;;35.00;17.55;;;9.00;67.20;7.90;102790.00;;;;4967896;28;20420;-72
2021/03/03 00:31:03;;;;;;;30.92;16.70;;;9.00;66.80;7.90;102803.00;;;;4970006;28;20045;-72
2021/03/03 00:33:29;;;;;;;33.85;17.02;;;8.90;67.90;7.90;102795.00;;;;4989328;28;20599;-72
2021/03/03 00:35:55;;;;;;;33.17;16.70;;;8.90;67.50;7.80;102808.00;;;;4969568;28;20050;-72
2021/03/03 00:38:21;;;;;;;27.70;16.65;;;8.90;68.00;7.80;102805.00;;;;4979059;28;20052;-71
2021/03/03 00:40:47;;;;;;;35.72;18.50;;;8.70;67.90;7.80;102799.00;;;;4971218;28;20046;-72
2021/03/03 00:43:13;;;;;;;33.45;17.38;;;8.80;68.00;7.80;102794.00;;;;4974886;28;20128;-71
2021/03/03 00:45:39;;;;;;;34.58;18.13;;;8.80;68.30;7.70;102800.00;;;;4973574;28;20685;-71
2021/03/03 00:48:05;;;;;;;32.53;17.17;;;8.80;68.40;7.70;102801.00;;;;4952598;28;20078;-71
2021/03/03 00:50:31;;;;;;;33.67;18.67;;;8.80;68.70;7.60;102807.00;;;;4954339;28;20047;-71
2021/03/03 00:52:57;;;;;;;32.42;16.75;;;8.70;68.70;7.60;102800.00;;;;4978262;28;20046;-71
2021/03/03 00:55:26;;;;;;;32.38;16.83;;;8.70;68.60;7.60;102803.00;;;;5006335;28;20049;-71
2021/03/03 00:57:54;;;;;;;37.55;18.73;;;8.60;68.10;7.50;102802.00;;;;4979600;28;20042;-71
2021/03/03 01:00:22;;;;;;;32.10;17.33;;;8.50;68.20;7.50;102802.00;;;;4954465;28;21074;-71
2021/03/03 01:02:51;;;;;;;34.80;18.85;;;8.60;68.90;7.40;102790.00;;;;4987536;28;20038;-71
2021/03/03 01:05:17;;;;;;;35.17;18.00;;;8.40;68.90;7.40;102790.00;;;;4986409;28;22281;-72
2021/03/03 01:07:47;;;;;;;30.75;17.23;;;8.50;69.40;7.30;102807.00;;;;4963456;28;20061;-72
2021/03/03 01:10:13;;;;;;;37.03;18.30;;;8.40;69.40;7.30;102802.00;;;;4986378;28;20739;-71
2021/03/03 01:12:41;;;;;;;30.90;18.13;;;8.40;68.50;7.20;102789.00;;;;4973684;28;20038;-71
2021/03/03 01:15:10;;;;;;;39.58;18.55;;;10.10;70.70;7.10;102798.00;;;;4959530;28;20504;-71
2021/03/03 01:17:37;;;;;;;30.80;17.10;;;8.30;69.80;7.10;102790.00;;;;4978044;28;20126;-71
2021/03/03 01:20:04;;;;;;;29.65;16.83;;;8.20;69.80;7.10;102795.00;;;;5005251;28;21332;-71
2021/03/03 01:22:30;;;;;;;31.05;16.75;;;8.10;69.50;7.00;102785.00;;;;4977299;28;20148;-71
2021/03/03 01:24:56;;;;;;;34.35;18.20;;;8.20;70.00;7.00;102779.00;;;;4994775;28;20706;-71
2021/03/03 01:27:22;;;;;;;40.58;18.85;;;8.10;70.10;6.90;102778.00;;;;4976247;28;20072;-71
2021/03/03 01:29:48;;;;;;;35.30;18.27;;;8.10;70.30;6.90;102772.00;;;;5000187;28;20165;-71
2021/03/03 01:32:14;;;;;;;34.35;18.33;;;8.00;70.20;6.90;102772.00;;;;4989455;28;20567;-72
2021/03/03 01:34:39;;;;;;;31.83;16.77;;;8.00;70.50;6.90;102768.00;;;;4989830;28;20112;-72
2021/03/03 01:37:05;;;;;;;33.10;16.67;;;8.00;70.40;6.80;102781.00;;;;5007009;28;20065;-71
2021/03/03 01:39:31;;;;;;;37.13;20.23;;;8.00;71.60;6.80;102773.00;;;;4988294;28;20041;-72
2021/03/03 01:41:57;;;;;;;30.50;17.02;;;7.90;70.10;6.80;102775.00;;;;5005738;28;20497;-72
2021/03/03 01:44:23;;;;;;;32.33;17.13;;;7.90;69.90;6.70;102756.00;;;;4970503;28;20045;-72
2021/03/03 01:46:49;;;;;;;39.47;18.88;;;7.90;71.10;6.70;102763.00;;;;4992983;28;20087;-72
2021/03/03 01:49:15;;;;;;;32.67;18.27;;;7.80;71.00;6.70;102764.00;;;;4991683;28;20046;-72
2021/03/03 01:51:41;;;;;;;29.83;16.75;;;7.80;72.10;6.60;102770.00;;;;5006148;28;20034;-72
2021/03/03 01:54:07;;;;;;;32.88;16.60;;;7.80;71.00;6.60;102760.00;;;;4993724;28;20046;-71
2021/03/03 01:56:34;;;;;;;30.70;17.67;;;7.70;70.80;6.60;102773.00;;;;4992991;28;20054;-72
2021/03/03 01:59:00;;;;;;;40.10;18.85;;;7.70;71.20;6.60;102773.00;;;;4986618;28;20030;-72
2021/03/03 02:01:26;;;;;;;37.90;18.55;;;7.70;71.20;6.50;102759.00;;;;5003862;28;20524;-72
2021/03/03 02:03:52;;;;;;;35.50;18.08;;;7.70;71.50;6.50;102762.00;;;;4990585;28;20402;-72
2021/03/03 02:07:09;;;;;;;33.42;17.92;;;7.60;71.30;6.40;102767.00;;;;4989172;28;20142;-72
2021/03/03 02:10:02;;;;;;;30.83;17.77;;;7.60;71.60;6.30;102749.00;;;;4985302;28;20140;-72
2021/03/03 02:13:11;;;;;;;30.80;17.00;;;7.50;71.00;6.30;102744.00;;;;5000938;28;20085;-72
2021/03/03 02:15:41;;;;;;;36.50;18.48;;;7.50;71.60;6.30;102748.00;;;;4985230;28;20042;-72
2021/03/03 02:18:10;;;;;;;36.90;18.73;;;7.40;70.70;6.30;102751.00;;;;4971595;28;20813;-72
2021/03/03 02:21:33;;;;;;;34.22;18.48;;;7.40;71.10;6.20;102747.00;;;;4976631;28;20137;-72
2021/03/03 02:24:08;;;;;;;45.53;21.00;;;7.40;71.30;6.20;102746.00;;;;4987175;28;20065;-72
2021/03/03 02:26:36;;;;;;;40.58;18.70;;;7.70;72.20;6.20;102737.00;;;;4988958;28;20159;-72
2021/03/03 02:29:10;;;;;;;;;;;7.30;71.60;6.10;102736.00;;;;4988712;28;20149;-72
2021/03/03 02:31:42;;;;;;;33.67;18.33;;;7.30;73.10;6.20;102745.00;;;;4983511;28;19925;-72
2021/03/03 02:34:09;;;;;;;35.08;18.45;;;7.30;72.20;6.20;102745.00;;;;4987444;28;20034;-72
2021/03/03 02:36:37;;;;;;;32.53;18.75;;;7.30;72.70;6.20;102749.00;;;;4987011;28;20034;-72
2021/03/03 02:39:05;;;;;;;35.70;19.45;;;7.30;72.10;6.20;102748.00;;;;5002111;28;20092;-72
2021/03/03 02:41:33;;;;;;;39.58;20.42;;;7.30;72.00;6.30;102739.00;;;;5000287;28;20136;-72
2021/03/03 02:44:00;;;;;;;37.35;18.58;;;7.30;71.80;6.20;102733.00;;;;4984808;28;20321;-72
2021/03/03 02:46:27;;;;;;;40.78;19.27;;;9.30;73.40;6.20;102731.00;;;;4996353;28;20071;-72
2021/03/03 02:48:53;;;;;;;32.47;18.70;;;7.30;72.40;6.20;102723.00;;;;4983081;28;20445;-72
2021/03/03 02:51:19;;;;;;;43.78;19.60;;;7.30;72.00;6.20;102718.00;;;;4992230;28;20037;-72
2021/03/03 02:53:45;;;;;;;38.63;19.65;;;7.30;72.50;6.20;102719.00;;;;5006149;28;20040;-72
2021/03/03 02:56:11;;;;;;;38.05;20.38;;;7.30;71.80;6.20;102710.00;;;;4992927;28;20392;-72
2021/03/03 02:58:38;;;;;;;40.83;20.33;;;7.30;72.70;6.20;102711.00;;;;4985515;28;20050;-72
2021/03/03 03:01:09;;;;;;;37.33;19.45;;;7.30;72.90;6.10;102705.00;;;;4981232;28;20046;-72
2021/03/03 03:04:02;;;;;;;36.22;19.88;;;7.40;73.00;6.20;102711.00;;;;4987743;28;20145;-72
2021/03/03 03:06:48;;;;;;;34.13;19.00;;;7.20;72.20;6.10;102710.00;;;;4984669;28;20045;-72
2021/03/03 03:09:16;;;;;;;34.58;19.05;;;7.30;72.30;6.20;102714.00;;;;4986535;28;20088;-72
2021/03/03 03:11:53;;;;;;;38.45;19.63;;;7.30;72.50;6.10;102716.00;;;;4970855;28;20076;-72
2021/03/03 03:14:24;;;;;;;33.55;18.63;;;7.30;72.10;6.10;102705.00;;;;4985843;28;20105;-72
2021/03/03 03:16:52;;;;;;;34.30;18.60;;;7.20;72.70;6.10;102702.00;;;;4988237;28;20050;-72
2021/03/03 03:19:39;;;;;;;38.55;18.85;;;7.20;71.90;6.00;102704.00;;;;4986531;28;20100;-72
2021/03/03 03:22:08;;;;;;;34.05;18.90;;;6.80;73.00;6.10;102706.00;;;;4987545;28;20037;-72
2021/03/03 03:24:38;;;;;;;36.72;18.98;;;7.20;73.20;6.00;102701.00;;;;4994278;28;20038;-72
2021/03/03 03:27:05;;;;;;;39.90;18.63;;;7.20;73.20;6.00;102702.00;;;;4996490;28;20038;-72
2021/03/03 03:29:32;;;;;;;33.67;18.65;;;7.20;73.20;6.00;102699.00;;;;4991162;28;20053;-72
2021/03/03 03:31:58;;;;;;;38.45;20.05;;;7.50;73.40;6.00;102702.00;;;;5000731;28;20092;-72
2021/03/03 03:34:24;;;;;;;37.20;18.45;;;7.10;72.50;6.00;102696.00;;;;4990952;28;20125;-72
2021/03/03 03:36:51;;;;;;;41.30;19.95;;;7.10;73.00;6.00;102691.00;;;;4984604;28;20056;-72
2021/03/03 03:39:17;;;;;;;36.85;18.83;;;7.10;73.40;6.00;102697.00;;;;4991680;28;20052;-72
2021/03/03 03:41:47;;;;;;;36.47;18.65;;;7.10;73.10;5.90;102690.00;;;;4972020;28;20229;-72
2021/03/03 03:44:13;;;;;;;37.80;19.20;;;7.10;72.80;5.90;102712.00;;;;4993544;28;20038;-72
2021/03/03 03:46:41;;;;;;;40.63;20.17;;;7.10;73.70;5.90;102713.00;;;;4993217;28;20056;-72
2021/03/03 03:49:08;;;;;;;33.85;18.08;;;7.00;73.90;5.90;102693.00;;;;4974343;28;22447;-72
2021/03/03 03:51:35;;;;;;;33.38;18.13;;;7.00;73.70;5.90;102710.00;;;;4991674;28;20542;-73
2021/03/03 03:54:01;;;;;;;34.20;17.80;;;7.00;73.90;5.90;102701.00;;;;4984095;28;20077;-72
2021/03/03 03:56:27;;;;;;;34.60;17.80;;;7.00;73.20;5.90;102700.00;;;;4986146;28;20173;-72
2021/03/03 03:58:53;;;;;;;35.00;17.52;;;7.10;73.50;5.90;102708.00;;;;4995017;28;20452;-72
2021/03/03 04:01:19;;;;;;;34.17;18.93;;;7.00;73.20;5.90;102702.00;;;;4983766;28;20049;-72
2021/03/03 04:03:45;;;;;;;37.10;19.05;;;7.00;73.60;6.00;102717.00;;;;4986301;28;20053;-72
2021/03/03 04:06:11;;;;;;;34.13;17.95;;;7.10;73.60;6.00;102712.00;;;;4988767;28;20125;-72
2021/03/03 04:08:37;;;;;;;33.35;18.63;;;7.10;73.60;6.00;102717.00;;;;4987548;28;20615;-71
2021/03/03 04:11:02;;;;;;;31.10;17.73;;;7.10;73.20;6.00;102717.00;;;;4995981;28;20104;-72
2021/03/03 04:13:28;;;;;;;33.75;17.35;;;7.10;73.80;6.00;102709.00;;;;4994476;28;20035;-72
2021/03/03 04:15:54;;;;;;;34.65;18.48;;;7.10;73.80;6.00;102712.00;;;;4992500;28;20133;-72
2021/03/03 04:18:20;;;;;;;33.88;18.48;;;8.30;74.40;5.90;102720.00;;;;4986885;28;21734;-71
2021/03/03 04:20:46;;;;;;;35.13;18.55;;;7.10;74.10;5.90;102716.00;;;;4989920;28;20042;-72
2021/03/03 04:23:12;;;;;;;40.40;18.20;;;7.00;72.60;5.90;102717.00;;;;4984470;28;20129;-72
2021/03/03 04:25:38;;;;;;;41.28;18.13;;;7.00;73.70;5.90;102723.00;;;;4980508;28;20064;-72
2021/03/03 04:28:05;;;;;;;30.85;17.02;;;7.00;73.80;5.90;102714.00;;;;4986362;28;20185;-72
2021/03/03 04:30:32;;;;;;;39.85;19.88;;;7.00;72.70;5.90;102724.00;;;;4999451;28;20045;-72
2021/03/03 04:32:58;;;;;;;31.38;17.08;;;7.10;73.70;5.90;102721.00;;;;4972145;28;20053;-72
2021/03/03 04:35:24;;;;;;;38.97;18.52;;;7.00;73.60;5.90;102732.00;;;;4993959;28;20034;-72
2021/03/03 04:37:50;;;;;;;32.95;17.63;;;7.00;72.90;5.90;102722.00;;;;5004731;28;20129;-72
2021/03/03 04:40:18;;;;;;;32.35;18.85;;;7.00;73.80;5.90;102727.00;;;;4968896;28;20042;-72
2021/03/03 04:42:44;;;;;;;34.40;17.88;;;7.00;73.40;5.90;102722.00;;;;4987551;28;20041;-72
2021/03/03 04:45:12;;;;;;;39.30;17.75;;;7.00;73.80;5.90;102729.00;;;;4981633;28;20038;-71
2021/03/03 04:47:39;;;;;;;35.50;18.52;;;7.00;74.10;5.90;102717.00;;;;4989926;28;20476;-71
2021/03/03 04:50:08;;;;;;;35.00;18.17;;;7.00;73.90;5.80;102719.00;;;;4986220;28;20046;-72
2021/03/03 04:52:35;;;;;;;38.85;18.55;;;6.90;73.20;5.80;102721.00;;;;4992692;28;20317;-72
2021/03/03 04:55:01;;;;;;;40.28;18.02;;;7.00;74.10;5.80;102726.00;;;;4992133;28;20052;-72
2021/03/03 04:57:27;;;;;;;29.13;15.93;;;6.90;73.40;5.80;102711.00;;;;4981513;28;20101;-72
2021/03/03 04:59:53;;;;;;;38.95;17.60;;;6.90;74.00;5.80;102710.00;;;;4981020;28;20062;-72
2021/03/03 05:02:19;;;;;;;37.40;18.05;;;6.90;74.20;5.80;102717.00;;;;4990785;28;20065;-71
2021/03/03 05:04:45;;;;;;;36.15;18.55;;;6.90;74.00;5.80;102719.00;;;;4995219;28;20049;-71
2021/03/03 05:07:12;;;;;;;44.33;19.05;;;6.40;74.10;5.70;102713.00;;;;4983998;28;20840;-72
2021/03/03 05:09:38;;;;;;;37.97;18.95;;;6.90;74.60;5.70;102712.00;;;;4980583;28;20133;-72
2021/03/03 05:12:04;;;;;;;36.20;18.23;;;6.80;73.60;5.70;102706.00;;;;4969363;28;20046;-72
2021/03/03 05:14:30;;;;;;;36.47;19.30;;;6.80;74.40;5.70;102705.00;;;;4985721;28;20056;-71
2021/03/03 05:16:56;;;;;;;35.20;18.50;;;6.80;74.50;5.70;102697.00;;;;4994178;28;20030;-72
2021/03/03 05:19:22;;;;;;;35.03;17.42;;;6.80;74.50;5.60;102695.00;;;;4980896;28;20050;-72
2021/03/03 05:21:48;;;;;;;32.75;18.70;;;6.80;74.10;5.70;102705.00;;;;4986407;28;20469;-72
2021/03/03 05:24:14;;;;;;;31.65;17.83;;;6.80;74.30;5.60;102699.00;;;;4985263;28;20128;-72
2021/03/03 05:26:40;;;;;;;36.30;19.75;;;6.80;74.60;5.60;102684.00;;;;4984980;28;20521;-72
2021/03/03 05:29:06;;;;;;;31.42;17.45;;;6.80;74.70;5.60;102680.00;;;;4987766;28;20041;-72
2021/03/03 05:31:32;;;;;;;36.70;18.83;;;6.70;74.80;5.60;102681.00;;;;4988870;28;20057;-72
2021/03/03 05:33:58;;;;;;;32.40;18.15;;;6.70;74.90;5.60;102684.00;;;;4990606;28;20042;-72
2021/03/03 05:36:24;;;;;;;33.22;18.42;;;6.70;74.50;5.50;102684.00;;;;4989211;28;20476;-72
2021/03/03 05:38:49;;;;;;;36.38;18.27;;;6.70;74.90;5.50;102685.00;;;;4988707;28;20611;-72
2021/03/03 05:41:15;;;;;;;38.92;19.60;;;6.60;74.50;5.50;102681.00;;;;4986601;28;20072;-72
2021/03/03 05:43:41;;;;;;;35.40;19.75;;;6.70;74.40;5.50;102684.00;;;;4986563;28;20378;-72
2021/03/03 05:46:07;;;;;;;37.47;19.00;;;6.60;75.00;5.50;102694.00;;;;4988569;28;20065;-72
2021/03/03 05:49:01;;;;;;;34.65;17.48;;;6.60;75.40;5.40;102688.00;;;;4983741;28;20456;-72
2021/03/03 05:51:28;;;;;;;32.47;18.27;;;6.60;74.80;5.40;102691.00;;;;4985951;28;20064;-72
2021/03/03 05:53:55;;;;;;;38.88;20.50;;;6.60;75.00;5.40;102693.00;;;;4999636;28;20061;-72
2021/03/03 05:56:24;;;;;;;40.90;20.60;;;6.50;74.50;5.40;102691.00;;;;4986929;28;20626;-71
2021/03/03 05:58:51;;;;;;;39.08;20.55;;;9.20;77.00;5.40;102691.00;;;;5001591;28;20519;-71
2021/03/03 06:01:17;;;;;;;38.45;19.52;;;6.50;75.60;5.30;102689.00;;;;4969913;28;20125;-71
2021/03/03 06:03:43;;;;;;;39.47;20.07;;;6.70;75.80;5.40;102687.00;;;;4989770;28;20057;-71
2021/03/03 06:06:09;;;;;;;40.25;20.63;;;6.50;74.80;5.30;102684.00;;;;4981123;28;20046;-71
2021/03/03 06:08:36;;;;;;;40.33;20.75;;;;;5.30;102694.00;;;;4987305;28;20616;-71
2021/03/03 06:11:04;;;;;;;39.53;19.65;;;6.50;75.20;5.30;102688.00;;;;4986055;28;20046;-71
2021/03/03 06:13:32;;;;;;;37.42;19.60;;;6.50;75.10;5.30;102691.00;;;;4988664;28;20042;-71
2021/03/03 06:15:58;;;;;;;40.60;20.30;;;6.50;74.80;5.30;102689.00;;;;4979935;28;20056;-72
2021/03/03 06:18:25;;;;;;;41.05;21.38;;;6.50;75.80;5.30;102690.00;;;;4990582;28;20153;-72
2021/03/03 06:20:54;;;;;;;42.75;19.63;;;6.50;75.80;5.30;102703.00;;;;4983526;28;20504;-72
2021/03/03 06:23:21;;;;;;;43.75;21.70;;;6.80;75.80;5.30;102690.00;;;;4970947;28;20145;-72
2021/03/03 06:25:56;;;;;;;39.88;19.88;;;6.40;76.30;5.20;102703.00;;;;4985930;28;20053;-72
2021/03/03 06:28:44;;;;;;;46.30;21.73;;;6.40;76.50;5.20;102702.00;;;;4985761;28;20086;-73
2021/03/03 06:31:26;;;;;;;38.20;21.03;;;6.40;76.30;5.10;102700.00;;;;5002769;28;20704;-73
2021/03/03 06:34:14;;;;;;;38.13;19.02;;;6.30;76.50;5.20;102701.00;;;;4987034;28;20042;-72
2021/03/03 06:36:43;;;;;;;33.57;18.23;;;6.40;76.10;5.20;102704.00;;;;4981635;28;21671;-72
2021/03/03 06:39:36;;;;;;;42.53;19.77;;;6.30;76.50;5.20;102708.00;;;;4989119;28;20093;-71
2021/03/03 06:42:08;;;;;;;38.95;19.70;;;6.40;75.30;5.20;102707.00;;;;4982155;28;20373;-71
2021/03/03 06:44:55;;;;;;;37.08;18.95;;;6.40;75.20;5.20;102706.00;;;;4979977;28;20042;-71
2021/03/03 06:47:22;;;;;;;41.47;21.20;;;6.40;76.30;5.30;102707.00;;;;4973206;28;20105;-72
2021/03/03 06:49:50;;;;;;;40.13;21.85;;;7.10;76.50;5.30;102719.00;;;;4981476;28;20054;-71
2021/03/03 06:52:16;;;;;;;38.63;18.48;;;6.40;76.20;5.30;102721.00;;;;4988402;28;20785;-69
2021/03/03 06:54:42;;;;;;;39.47;20.58;;;6.40;76.20;5.30;102708.00;;;;4982987;28;20676;-69
2021/03/03 06:57:14;;;;;;;38.20;20.15;;;6.40;75.80;5.30;102717.00;;;;4980084;28;20054;-70
2021/03/03 06:59:44;;;;;;;33.53;18.65;;;6.40;76.50;5.30;102716.00;;;;4987399;28;20050;-69
2021/03/03 07:02:15;;;;;;;41.78;21.33;;;6.50;76.90;5.30;102720.00;;;;4984930;28;20045;-69
2021/03/03 07:04:45;;;;;;;40.20;20.48;;;6.50;76.60;5.40;102720.00;;;;4989497;28;20165;-69
2021/03/03 07:07:19;;;;;;;40.38;21.27;;;6.50;76.50;5.50;102718.00;;;;5002132;28;20042;-69
2021/03/03 07:09:53;;;;;;;35.17;19.27;;;6.50;76.40;5.50;102727.00;;;;4985324;28;20046;-69
2021/03/03 07:12:21;;;;;;;35.67;18.63;;;6.60;75.40;5.60;102730.00;;;;4988377;28;20046;-70
2021/03/03 07:15:08;;;;;;;39.47;21.98;;;6.70;76.00;5.60;102736.00;;;;4968141;28;20093;-69
2021/03/03 07:17:36;;;;;;;38.78;20.33;;;6.70;76.30;5.70;102744.00;;;;4985186;28;20061;-70
2021/03/03 07:20:14;;;;;;;43.10;23.60;;;6.80;76.20;5.80;102730.00;;;;4987627;28;20057;-70
2021/03/03 07:22:45;;;;;;;38.53;20.98;;;6.90;75.40;5.80;102744.00;;;;4998938;28;20699;-70
2021/03/03 07:25:14;;;;;;;36.20;20.35;;;6.90;76.00;5.90;102746.00;;;;4995125;28;20042;-70
2021/03/03 07:27:42;;;;;;;40.20;21.05;;;6.90;74.80;6.00;102745.00;;;;4988818;28;20100;-69
2021/03/03 07:30:18;;;;;;;40.78;21.75;;;7.00;75.80;6.00;102744.00;;;;4981047;28;21937;-70
2021/03/03 07:32:44;;;;;;;45.72;22.77;;;7.10;75.80;6.10;102740.00;;;;4987609;28;20056;-69
2021/03/03 07:35:12;;;;;;;38.33;20.55;;;7.10;76.20;6.10;102752.00;;;;4971285;28;20042;-69
2021/03/03 07:37:45;;;;;;;;;;;7.10;74.90;6.10;102748.00;;;;4988198;28;20034;-70
2021/03/03 07:40:14;;;;;;;46.85;23.58;;;7.20;75.30;6.20;102749.00;;;;4985831;28;19925;-69
2021/03/03 07:42:50;;;;;;;37.85;20.33;;;7.30;75.00;6.30;102749.00;;;;4993738;28;20527;-70
2021/03/03 07:45:18;;;;;;;43.08;21.92;;;7.30;75.50;6.30;102762.00;;;;4983240;28;20042;-70
2021/03/03 07:47:44;;;;;;;43.40;22.95;;;7.40;75.60;6.40;102752.00;;;;4985207;28;20046;-70
2021/03/03 07:50:20;;;;;;;43.35;22.13;;;6.70;75.20;6.40;102750.00;;;;4985654;28;20390;-70
2021/03/03 07:52:50;;;;;;;41.03;23.38;;;7.40;74.70;6.40;102762.00;;;;4986093;28;21055;-70
2021/03/03 07:55:16;;;;;;;35.75;20.95;;;7.50;75.50;6.50;102760.00;;;;4990429;28;20034;-70
2021/03/03 07:57:49;;;;;;;37.28;21.67;;;7.50;74.20;6.60;102755.00;;;;5003295;28;20608;-70
2021/03/03 08:00:31;;;;;;;46.80;22.98;;;7.60;75.20;6.60;102761.00;;;;4969637;28;20134;-70
2021/03/03 08:03:00;;;;;;;47.78;24.95;;;7.70;75.00;6.70;102760.00;;;;4981904;28;20057;-70
2021/03/03 08:05:38;;;;;;;43.53;24.15;;;7.80;74.40;6.80;102756.00;;;;4975314;28;20493;-70
2021/03/03 08:08:13;;;;;;;44.85;23.70;;;7.80;75.00;6.90;102760.00;;;;4969062;28;20046;-70
2021/03/03 08:10:41;;;;;;;47.65;24.05;;;7.90;74.40;6.90;102769.00;;;;4974888;28;20497;-70
2021/03/03 08:13:14;;;;;;;44.53;24.05;;;7.90;74.80;7.00;102761.00;;;;4994111;28;20076;-70
2021/03/03 08:15:48;;;;;;;42.38;24.60;;;8.30;74.70;7.10;102751.00;;;;4978495;28;20117;-71
2021/03/03 08:18:15;;;;;;;52.42;24.30;;;8.00;74.60;7.20;102762.00;;;;4987006;28;20872;-70
2021/03/03 08:20:55;;;;;;;42.03;24.33;;;8.10;74.60;7.30;102745.00;;;;4968467;28;20137;-70
2021/03/03 08:23:34;;;;;;;45.45;24.38;;;8.60;74.70;7.40;102744.00;;;;4965473;28;20501;-70
2021/03/03 08:26:03;;;;;;;44.38;24.88;;;8.30;74.20;7.40;102743.00;;;;4971524;28;20074;-71
2021/03/03 08:28:37;;;;;;;47.35;25.35;;;8.30;74.10;7.50;102740.00;;;;4950621;28;20493;-70
2021/03/03 08:31:09;;;;;;;50.85;26.48;;;8.50;74.20;7.60;102761.00;;;;4969504;28;20046;-70
2021/03/03 08:33:41;;;;;;;52.38;25.38;;;8.50;74.00;7.60;102741.00;;;;4972691;28;20038;-71
2021/03/03 08:36:31;;;;;;;47.40;25.00;;;8.60;74.00;7.70;102734.00;;;;4971409;28;20058;-70
2021/03/03 08:38:57;;;;;;;43.45;25.15;;;8.70;73.00;7.80;102749.00;;;;4988816;28;20039;-70
2021/03/03 08:41:26;;;;;;;48.92;25.85;;;8.80;73.20;7.90;102744.00;;;;4984147;28;20056;-70
2021/03/03 08:44:11;;;;;;;46.58;27.48;;;8.80;73.10;8.00;102742.00;;;;4997459;28;20049;-70
2021/03/03 08:46:44;;;;;;;47.00;27.70;;;8.90;73.90;8.10;102743.00;;;;5011424;28;20129;-71
2021/03/03 08:49:09;;;;;;;54.15;28.35;;;9.00;73.90;8.20;102743.00;;;;5021431;28;20065;-71
2021/03/03 08:51:41;;;;;;;45.05;24.10;;;9.10;73.70;8.30;102728.00;;;;4995171;28;20496;-70
2021/03/03 08:54:20;;;;;;;52.47;26.48;;;9.00;73.60;8.40;102735.00;;;;4993972;28;20046;-71
2021/03/03 08:56:53;;;;;;;46.00;27.00;;;9.30;72.70;8.50;102746.00;;;;5000222;28;20042;-71
2021/03/03 08:59:29;;;;;;;52.97;29.05;;;9.30;73.60;8.50;102750.00;;;;4994843;28;20540;-71
2021/03/03 09:02:12;;;;;;;50.90;28.50;;;9.40;73.50;8.60;102743.00;;;;4981367;28;20043;-70
2021/03/03 09:04:50;;;;;;;53.83;31.55;;;9.50;73.50;8.60;102740.00;;;;4973158;28;20037;-71
2021/03/03 09:07:20;;;;;;;64.45;30.92;;;10.50;74.00;8.70;102754.00;;;;4974685;28;20121;-71
2021/03/03 09:09:54;;;;;;;54.33;30.27;;;9.50;72.30;8.70;102748.00;;;;4974174;28;20100;-71
2021/03/03 09:12:26;;;;;;;56.28;31.30;;;9.60;72.40;8.80;102735.00;;;;4966401;28;20053;-71
2021/03/03 09:14:54;;;;;;;55.88;30.58;;;9.60;73.30;8.80;102747.00;;;;4987288;28;20046;-71
2021/03/03 09:17:27;;;;;;;49.80;29.75;;;9.70;73.40;8.90;102737.00;;;;4966557;28;20053;-70
2021/03/03 09:19:54;;;;;;;56.92;31.63;;;9.80;73.40;9.10;102739.00;;;;5000454;28;20038;-71
2021/03/03 09:22:26;;;;;;;55.95;31.00;;;9.90;73.50;9.10;102738.00;;;;4975479;28;20053;-71
2021/03/03 09:25:06;;;;;;;52.53;30.45;;;10.00;73.50;9.20;102741.00;;;;4987735;28;20077;-72
2021/03/03 09:27:32;;;;;;;55.60;32.88;;;10.30;73.40;9.30;102742.00;;;;4989393;28;20046;-71
2021/03/03 09:29:59;;;;;;;56.83;31.58;;;10.10;73.30;9.40;102732.00;;;;4988859;28;20046;-72
2021/03/03 09:32:25;;;;;;;56.72;31.45;;;10.20;72.80;9.50;102744.00;;;;4984241;28;20033;-71
2021/03/03 09:34:54;;;;;;;53.17;31.13;;;10.30;72.70;9.60;102738.00;;;;4986214;28;20042;-71
2021/03/03 09:37:22;;;;;;;58.72;30.83;;;10.40;72.60;9.70;102728.00;;;;5001318;28;20058;-71
2021/03/03 09:39:59;;;;;;;50.38;31.52;;;10.50;72.50;9.80;102734.00;;;;4997342;28;20933;-71
2021/03/03 09:42:26;;;;;;;55.70;31.00;;;10.70;71.20;9.90;102737.00;;;;4981922;28;21576;-72
2021/03/03 09:44:54;;;;;;;59.15;32.45;;;10.70;72.20;10.10;102741.00;;;;4996535;28;20193;-72
2021/03/03 09:47:33;;;;;;;53.72;32.95;;;11.40;72.50;10.20;102729.00;;;;4992161;28;20049;-72
2021/03/03 09:50:09;;;;;;;54.80;32.20;;;11.00;72.20;10.30;102726.00;;;;5000326;28;20081;-72
2021/03/03 09:52:40;;;;;;;53.28;31.63;;;11.00;70.80;10.40;102729.00;;;;4985292;28;20100;-72
2021/03/03 09:55:12;;;;;;;55.35;31.50;;;11.30;71.80;10.40;102727.00;;;;4972378;28;20049;-72
2021/03/03 09:57:39;;;;;;;54.78;30.55;;;11.20;70.60;10.40;102723.00;;;;4983517;28;20093;-72
2021/03/03 10:00:12;;;;;;;54.25;32.55;;;11.20;71.60;10.50;102717.00;;;;4985078;28;20141;-71
2021/03/03 10:02:51;;;;;;;53.80;30.73;;;11.20;71.50;10.50;102721.00;;;;4988585;28;20062;-72
2021/03/03 10:05:29;;;;;;;54.35;31.23;;;11.30;71.50;10.60;102720.00;;;;4985983;28;20050;-71
2021/03/03 10:08:04;;;;;;;56.75;34.10;;;11.40;71.40;10.60;102736.00;;;;4987300;28;20053;-72
2021/03/03 10:10:34;;;;;;;53.17;31.13;;;11.50;70.30;10.70;102727.00;;;;4986144;28;20053;-72
2021/03/03 10:13:00;;;;;;;51.90;32.22;;;11.50;71.30;10.80;102716.00;;;;4991340;28;20527;-72
2021/03/03 10:15:39;;;;;;;57.83;33.47;;;11.60;71.30;10.80;102720.00;;;;5007395;28;20109;-72
2021/03/03 10:18:09;;;;;;;53.83;31.95;;;11.70;69.70;10.90;102715.00;;;;4994503;28;20073;-71
2021/03/03 10:20:36;;;;;;;63.22;34.20;;;11.70;71.00;11.00;102714.00;;;;4982486;28;20052;-72
2021/03/03 10:23:24;;;;;;;57.45;32.90;;;11.70;71.20;11.00;102716.00;;;;4986094;28;20130;-73
2021/03/03 10:26:07;;;;;;;60.08;33.67;;;11.80;70.80;11.10;102724.00;;;;4985069;28;20034;-73
2021/03/03 10:28:35;;;;;;;54.45;32.47;;;11.90;70.00;11.20;102728.00;;;;4987665;28;21082;-72
2021/03/03 10:31:04;;;;;;;55.15;33.40;;;11.90;70.90;11.20;102731.00;;;;4988300;28;20067;-72
2021/03/03 10:33:35;;;;;;;59.28;34.75;;;12.00;70.70;11.40;102733.00;;;;5004380;28;20066;-72
2021/03/03 10:36:07;;;;;;;62.80;33.92;;;12.10;70.40;11.50;102738.00;;;;4980547;28;20040;-73
2021/03/03 10:38:34;;;;;;;57.63;33.85;;;12.20;70.50;11.60;102741.00;;;;4970802;28;20077;-71
2021/03/03 10:41:03;;;;;;;57.67;34.55;;;12.30;68.80;11.60;102742.00;;;;4987990;28;20129;-72
2021/03/03 10:43:30;;;;;;;60.22;34.53;;;12.30;68.80;11.60;102739.00;;;;4988438;28;20069;-73
2021/03/03 10:46:16;;;;;;;63.10;34.25;;;12.50;70.10;11.60;102735.00;;;;4989810;28;20061;-72
2021/03/03 10:48:43;;;;;;;68.72;35.92;;;12.40;69.20;11.70;102734.00;;;;4979288;28;20145;-73
2021/03/03 10:51:12;;;;;;;61.20;35.25;;;12.40;70.30;11.90;102726.00;;;;4978019;28;20050;-72
2021/03/03 10:53:45;;;;;;;58.55;35.25;;;12.60;69.90;12.00;102732.00;;;;4993802;28;20034;-71
2021/03/03 10:56:37;;;;;;;60.30;36.10;;;12.80;68.40;12.10;102730.00;;;;4988266;28;20046;-73
2021/03/03 10:59:12;;;;;;;63.20;37.28;;;12.80;69.20;12.30;102731.00;;;;4989916;28;20076;-73